Time;durP1;ratioP1;P1;durP2;ratioP2;P2;SDS_P1;SDS_P2;PMS_P1;PMS_P2;Temp;Humidity;BMP_temperature;BMP_pressure;BME280_temperature;BME280_humidity;BME280_pressure;Samples;Min_cycle;Max_cycle;Signal;HPM_P1;HPM_P2
2022/03/30 00:04:34;;;;;;;108.77;98.67;;;;;;;9.58;100.00;100867.56;1934757;73;33579;-76
2022/03/30 00:10:19;;;;;;;107.20;97.00;;;;;;;9.56;100.00;100862.28;1923745;73;32914;-77
2022/03/30 00:16:07;;;;;;;109.60;99.43;;;;;;;9.54;100.00;100849.82;1939261;73;32973;-76
2022/03/30 00:21:51;;;;;;;112.97;102.27;;;;;;;9.46;100.00;100858.67;1938982;73;33096;-77
2022/03/30 00:27:35;;;;;;;112.30;101.60;;;;;;;9.40;100.00;100858.41;1923492;73;32984;-77
2022/03/30 00:33:22;;;;;;;109.33;98.50;;;;;;;9.39;100.00;100855.35;1934158;73;32997;-76
2022/03/30 00:39:07;;;;;;;111.20;100.17;;;;;;;9.34;100.00;100841.48;1938964;73;33696;-77
2022/03/30 00:44:52;;;;;;;112.20;100.73;;;;;;;9.24;100.00;100848.44;1911704;73;33485;-77
2022/03/30 00:50:37;;;;;;;108.63;97.50;;;;;;;9.27;100.00;100844.55;1934405;73;32963;-78
2022/03/30 00:56:21;;;;;;;110.03;99.17;;;;;;;9.24;100.00;100838.15;1924782;74;33161;-77
2022/03/30 01:02:07;;;;;;;111.00;99.77;;;;;;;9.32;100.00;100837.63;1939442;73;33134;-76
2022/03/30 01:07:52;;;;;;;108.07;97.50;;;;;;;9.22;100.00;100831.23;1939537;73;33475;-77
2022/03/30 01:13:37;;;;;;;108.13;97.00;;;;;;;9.16;100.00;100822.08;1922748;73;33154;-76
2022/03/30 01:19:22;;;;;;;109.77;99.27;;;;;;;9.26;100.00;100811.55;1929320;73;33085;-77
2022/03/30 01:25:09;;;;;;;112.97;101.43;;;;;;;9.17;100.00;100804.35;1940171;73;33061;-76
2022/03/30 01:36:54;;;;;;;114.87;103.47;;;;;;;9.33;100.00;100801.84;1938923;73;33028;-77
2022/03/30 01:42:39;;;;;;;112.90;101.97;;;;;;;9.21;100.00;100801.30;1928308;73;33513;-76
2022/03/30 01:48:25;;;;;;;113.50;102.30;;;;;;;9.10;100.00;100798.27;1923047;73;33056;-77
2022/03/30 01:54:09;;;;;;;109.23;98.90;;;;;;;9.20;100.00;100798.83;1928409;73;33059;-76
2022/03/30 01:59:54;;;;;;;107.37;96.90;;;;;;;9.03;100.00;100787.44;1911704;73;33571;-76
2022/03/30 02:05:38;;;;;;;110.10;99.70;;;;;;;9.09;100.00;100779.97;1928254;73;33048;-78
2022/03/30 02:11:26;;;;;;;113.17;102.17;;;;;;;9.02;100.00;100778.04;1934329;73;33598;-76
2022/03/30 02:17:13;;;;;;;115.13;103.50;;;;;;;9.01;100.00;100766.67;1923001;74;33004;-77
2022/03/30 02:22:57;;;;;;;115.50;104.07;;;;;;;9.05;100.00;100766.39;1941028;73;33057;-78
2022/03/30 02:28:41;;;;;;;117.83;106.03;;;;;;;9.05;100.00;100750.61;1917617;73;33448;-77
2022/03/30 02:34:26;;;;;;;112.90;101.43;;;;;;;9.07;100.00;100746.98;1917283;73;32985;-76
2022/03/30 02:40:12;;;;;;;112.57;101.23;;;;;;;9.09;100.00;100746.17;1938909;73;33143;-75
2022/03/30 02:45:56;;;;;;;111.40;99.73;;;;;;;9.01;100.00;100735.65;1923324;73;33441;-78
2022/03/30 02:51:41;;;;;;;115.30;103.67;;;;;;;9.03;100.00;100722.33;1934361;73;33001;-78
2022/03/30 02:57:25;;;;;;;112.23;100.17;;;;;;;9.08;100.00;100720.95;1922954;73;33431;-77
2022/03/30 03:03:11;;;;;;;113.97;102.93;;;;;;;9.03;100.00;100718.73;1927998;73;33006;-77
2022/03/30 03:08:57;;;;;;;109.57;98.20;;;;;;;9.05;100.00;100713.20;1923093;73;32972;-77
2022/03/30 03:14:41;;;;;;;114.87;103.17;;;;;;;9.10;100.00;100716.52;1917485;73;33088;-76
2022/03/30 03:20:25;;;;;;;107.90;97.07;;;;;;;9.13;100.00;100711.80;1911793;73;33634;-76
2022/03/30 03:26:10;;;;;;;109.27;98.60;;;;;;;8.95;100.00;100709.59;1928633;73;33039;-77
2022/03/30 03:31:54;;;;;;;112.03;100.97;;;;;;;9.00;100.00;100709.59;1939340;73;33057;-77
2022/03/30 03:37:38;;;;;;;110.93;99.57;;;;;;;9.00;100.00;100712.37;1939055;73;33455;-76
2022/03/30 03:43:26;;;;;;;113.07;101.80;;;;;;;8.84;100.00;100703.80;1934901;73;33464;-75
2022/03/30 03:49:10;;;;;;;109.33;98.50;;;;;;;8.92;100.00;100699.08;1939593;73;33014;-75
2022/03/30 03:54:54;;;;;;;106.43;95.57;;;;;;;8.97;100.00;100692.98;1912282;73;33097;-76
2022/03/30 04:00:39;;;;;;;105.23;94.77;;;;;;;8.92;100.00;100690.77;1917676;73;33447;-77
2022/03/30 04:06:23;;;;;;;103.40;92.77;;;;;;;8.79;100.00;100697.70;1917087;73;32922;-78
2022/03/30 04:12:10;;;;;;;105.67;94.53;;;;;;;8.86;100.00;100689.94;1939724;73;33133;-77
2022/03/30 04:17:57;;;;;;;103.60;93.17;;;;;;;8.96;100.00;100688.55;1932884;73;33559;-77
2022/03/30 04:23:40;;;;;;;103.07;92.43;;;;;;;8.86;100.00;100697.41;1917054;73;33529;-77
2022/03/30 04:29:27;;;;;;;105.83;94.97;;;;;;;8.78;100.00;100689.66;1934129;73;33101;-77
2022/03/30 04:35:17;;;;;;;103.67;93.03;;;;;;;8.67;100.00;100692.45;1939776;73;33500;-77
2022/03/30 04:41:01;;;;;;;103.87;93.13;;;;;;;8.84;100.00;100690.78;1939327;73;33051;-77
2022/03/30 04:46:46;;;;;;;108.67;97.80;;;;;;;8.80;100.00;100684.69;1933647;73;32982;-76
2022/03/30 04:52:32;;;;;;;107.03;95.83;;;;;;;8.87;100.00;100690.22;1923155;73;32967;-77
2022/03/30 04:58:16;;;;;;;105.73;94.33;;;;;;;8.74;100.00;100693.55;1922687;73;33530;-76
2022/03/30 05:04:01;;;;;;;102.50;91.53;;;;;;;8.72;100.00;100682.48;1917026;73;33483;-76
2022/03/30 05:09:45;;;;;;;104.47;93.50;;;;;;;8.82;100.00;100682.45;1923168;73;32978;-77
2022/03/30 05:15:30;;;;;;;105.63;94.43;;;;;;;8.61;100.00;100687.17;1939147;73;33198;-77
2022/03/30 05:21:14;;;;;;;106.93;95.17;;;;;;;8.67;100.00;100688.84;1934362;74;32984;-77
2022/03/30 05:26:59;;;;;;;106.17;94.43;;;;;;;8.66;100.00;100683.02;1917444;73;33010;-77
2022/03/30 05:32:45;;;;;;;108.53;96.30;;;;;;;8.66;100.00;100688.56;1929338;73;32938;-76
2022/03/30 05:38:31;;;;;;;112.13;99.77;;;;;;;8.63;100.00;100684.97;1940643;73;33066;-78
2022/03/30 05:44:15;;;;;;;108.83;96.13;;;;;;;8.59;100.00;100691.61;1939734;73;33112;-77
2022/03/30 05:50:00;;;;;;;110.57;98.83;;;;;;;8.51;100.00;100688.02;1917198;73;33146;-77
2022/03/30 05:55:45;;;;;;;112.57;100.80;;;;;;;8.50;100.00;100690.50;1918342;74;33185;-76
2022/03/30 06:01:31;;;;;;;111.33;99.40;;;;;;;8.45;100.00;100685.50;1917117;73;33458;-78
2022/03/30 06:07:15;;;;;;;106.60;95.27;;;;;;;8.61;100.00;100688.00;1917241;73;33008;-78
2022/03/30 06:13:01;;;;;;;109.47;97.50;;;;;;;8.49;100.00;100688.00;1935410;73;33076;-75
2022/03/30 06:18:47;;;;;;;103.03;91.83;;;;;;;8.51;100.00;100687.18;1934719;74;33058;-79
2022/03/30 06:24:31;;;;;;;105.63;94.50;;;;;;;8.48;100.00;100684.94;1917897;73;32977;-77
2022/03/30 06:30:16;;;;;;;105.77;95.07;;;;;;;8.44;100.00;100693.52;1939431;73;33459;-75
2022/03/30 06:36:00;;;;;;;110.77;96.00;;;;;;;8.54;100.00;100689.39;1939913;73;33071;-79
2022/03/30 06:41:44;;;;;;;109.60;98.10;;;;;;;8.64;100.00;100688.02;1928829;74;33367;-71
2022/03/30 06:47:29;;;;;;;114.27;102.27;;;;;;;8.72;100.00;100694.94;1929733;73;33460;-74
2022/03/30 06:53:13;;;;;;;109.50;98.77;;;;;;;8.57;100.00;100695.75;1939853;73;32993;-74
2022/03/30 06:58:58;;;;;;;110.40;99.23;;;;;;;8.79;100.00;100706.01;1939854;73;33483;-77
2022/03/30 07:04:43;;;;;;;110.70;99.40;;;;;;;8.78;100.00;100707.11;1933888;73;32911;-74
2022/03/30 07:10:27;;;;;;;113.57;101.90;;;;;;;8.71;100.00;100707.12;1934257;73;33484;-72
2022/03/30 07:16:11;;;;;;;113.40;102.33;;;;;;;8.78;100.00;100712.65;1934631;73;33502;-77
2022/03/30 07:21:56;;;;;;;113.33;102.27;;;;;;;8.86;100.00;100708.48;1917001;74;33435;-74
2022/03/30 07:27:43;;;;;;;110.23;99.20;;;;;;;8.98;100.00;100709.06;1940141;73;33059;-77
2022/03/30 07:33:33;;;;;;;112.13;101.43;;;;;;;9.00;100.00;100704.05;1939537;73;33479;-75
2022/03/30 07:39:17;;;;;;;108.43;97.97;;;;;;;8.90;100.00;100696.58;1940334;73;33065;-77
2022/03/30 07:45:01;;;;;;;113.40;101.97;;;;;;;8.64;100.00;100689.41;1928880;73;32987;-76
2022/03/30 07:50:46;;;;;;;109.40;98.70;;;;;;;8.66;100.00;100690.78;1939503;73;33117;-80
2022/03/30 07:56:31;;;;;;;109.43;98.40;;;;;;;8.64;100.00;100697.71;1935228;73;33081;-77
2022/03/30 08:02:18;;;;;;;108.37;97.20;;;;;;;8.58;100.00;100687.73;1939655;73;33142;-79
2022/03/30 08:08:03;;;;;;;105.73;95.53;;;;;;;8.48;100.00;100684.94;1911880;73;33015;-79
2022/03/30 08:13:47;;;;;;;107.80;96.80;;;;;;;8.70;100.00;100682.74;1940323;73;33452;-76
2022/03/30 08:19:31;;;;;;;114.37;102.87;;;;;;;8.79;100.00;100675.55;1923366;73;32998;-78
2022/03/30 08:25:16;;;;;;;111.07;99.90;;;;;;;8.88;100.00;100678.03;1940141;74;33026;-77
2022/03/30 08:31:00;;;;;;;105.03;94.67;;;;;;;8.84;100.00;100670.56;1939956;73;33529;-77
2022/03/30 08:36:45;;;;;;;102.40;92.20;;;;;;;8.85;100.00;100671.67;1917335;73;33094;-79
2022/03/30 08:42:29;;;;;;;110.97;99.40;;;;;;;8.91;100.00;100666.94;1940249;73;32985;-78
2022/03/30 08:48:15;;;;;;;109.13;98.07;;;;;;;9.23;100.00;100658.31;1917132;73;33516;-79
2022/03/30 08:53:59;;;;;;;113.97;102.87;;;;;;;9.12;100.00;100665.25;1939871;73;33053;-78
2022/03/30 09:00:02;;;;;;;112.60;101.80;;;;;;;9.09;100.00;100666.38;1929095;73;33026;-79
2022/03/30 09:05:52;;;;;;;109.77;99.17;;;;;;;9.07;100.00;100665.25;1940153;73;33019;-79
2022/03/30 09:11:52;;;;;;;111.67;100.97;;;;;;;9.28;100.00;100654.14;1923562;73;32927;-75
2022/03/30 09:17:39;;;;;;;107.87;97.37;;;;;;;9.35;100.00;100656.05;1940619;73;33045;-75
2022/03/30 09:23:30;;;;;;;112.10;101.33;;;;;;;9.54;100.00;100650.18;1928780;73;32992;-75
2022/03/30 09:29:14;;;;;;;104.10;93.77;;;;;;;9.33;100.00;100660.48;1940275;73;33582;-78
2022/03/30 09:34:58;;;;;;;110.43;99.90;;;;;;;9.46;100.00;100654.34;1940303;73;33086;-76
2022/03/30 09:40:45;;;;;;;109.67;98.93;;;;;;;9.18;100.00;100659.15;1939354;73;33124;-75
2022/03/30 09:46:34;;;;;;;108.87;98.80;;;;;;;9.56;100.00;100661.80;1918025;73;33029;-75
2022/03/30 09:52:20;;;;;;;105.27;95.40;;;;;;;9.65;100.00;100662.88;1911992;73;32920;-76
2022/03/30 09:58:08;;;;;;;107.27;97.40;;;;;;;9.67;100.00;100659.25;2054140;69;32679;-77
2022/03/30 10:03:55;;;;;;;105.63;96.17;;;;;;;9.68;100.00;100661.47;1923415;73;32995;-77
2022/03/30 10:09:42;;;;;;;108.77;98.53;;;;;;;9.69;100.00;100652.05;1939353;73;32977;-78
2022/03/30 10:15:27;;;;;;;103.93;94.30;;;;;;;9.55;100.00;100647.66;1939924;73;33493;-78
2022/03/30 10:21:25;;;;;;;104.63;95.27;;;;;;;9.65;100.00;100641.25;1940475;73;33577;-79
2022/03/30 10:24:37;;;;;;;109.77;99.83;;;;;;;9.55;100.00;100655.97;1894429;75;26235;-76
2022/03/30 10:30:31;;;;;;;103.03;93.73;;;;;;;9.58;100.00;100645.73;1922715;73;33026;-78
2022/03/30 10:36:27;;;;;;;106.77;96.47;;;;;;;9.70;100.00;100640.67;1939376;73;33597;-78
2022/03/30 10:42:25;;;;;;;100.77;91.40;;;;;;;9.81;100.00;100641.44;1939658;73;33033;-78
2022/03/30 10:48:18;;;;;;;108.23;98.50;;;;;;;9.70;100.00;100636.52;1933748;74;33132;-78
2022/03/30 10:54:08;;;;;;;104.40;95.60;;;;;;;9.70;100.00;100636.52;1929036;73;33041;-76
2022/03/30 11:00:08;;;;;;;102.83;93.67;;;;;;;9.79;100.00;100632.03;1939740;73;33411;-78
2022/03/30 11:02:45;;;;;;;103.87;94.83;;;;;;;9.67;100.00;100637.64;1907174;75;26333;-78
2022/03/30 11:12:15;;;;;;;106.70;96.97;;;;;;;9.78;100.00;100619.83;1939718;73;33054;-78
2022/03/30 11:18:21;;;;;;;103.87;94.63;;;;;;;9.94;100.00;100613.06;1911816;73;33444;-77
2022/03/30 11:24:33;;;;;;;100.63;91.87;;;;;;;9.87;100.00;100611.18;1928134;73;33447;-77
2022/03/30 11:30:45;;;;;;;100.57;91.80;;;;;;;10.00;100.00;100607.22;1923482;73;32931;-77
2022/03/30 11:36:36;;;;;;;100.63;91.70;;;;;;;10.10;100.00;100595.78;1911395;73;33009;-78
2022/03/30 11:42:22;;;;;;;102.03;93.53;;;;;;;10.30;100.00;100598.44;1939046;73;33458;-76
2022/03/30 11:48:10;;;;;;;100.67;92.00;;;;;;;10.60;100.00;100583.45;1911510;73;33041;-78
2022/03/30 11:54:12;;;;;;;98.47;90.07;;;;;;;10.71;100.00;100580.84;1939314;73;33137;-77
2022/03/30 11:59:58;;;;;;;100.77;92.37;;;;;;;10.57;100.00;100568.78;1934041;74;32999;-76
2022/03/30 12:05:43;;;;;;;96.60;88.80;;;;;;;10.71;100.00;100573.89;1911630;73;32975;-79
2022/03/30 12:11:29;;;;;;;94.43;86.47;;;;;;;10.85;100.00;100565.98;1934512;74;33045;-78
2022/03/30 12:17:24;;;;;;;95.53;87.57;;;;;;;10.94;100.00;100561.44;1940357;73;33636;-78
2022/03/30 12:23:12;;;;;;;100.03;91.63;;;;;;;11.03;100.00;100556.62;1933600;74;33012;-79
2022/03/30 12:29:05;;;;;;;90.90;83.27;;;;;;;11.14;100.00;100560.36;1916973;73;33018;-78
2022/03/30 12:34:50;;;;;;;91.53;83.73;;;;;;;11.15;100.00;100548.69;1939877;73;33101;-79
2022/03/30 12:40:40;;;;;;;93.67;86.10;;;;;;;11.22;100.00;100539.42;1928397;73;33462;-77
2022/03/30 12:46:27;;;;;;;97.00;89.60;;;;;;;11.10;100.00;100527.89;1928759;73;32984;-79
2022/03/30 12:52:18;;;;;;;89.80;82.10;;;;;;;11.33;100.00;100524.28;1939444;73;33033;-77
2022/03/30 12:58:06;;;;;;;86.67;79.07;;;;;;;11.20;100.00;100525.00;1922701;73;32988;-78
2022/03/30 13:04:00;;;;;;;85.60;78.77;;;;;;;11.33;100.00;100501.47;1934459;74;32923;-77
2022/03/30 13:10:06;;;;;;;85.37;78.30;;;;;;;11.37;100.00;100494.74;1917859;73;33555;-77
2022/03/30 13:16:05;;;;;;;86.23;78.93;;;;;;;11.23;100.00;100495.20;1928740;74;32976;-77
2022/03/30 13:21:51;;;;;;;88.77;81.30;;;;;;;11.30;100.00;100490.09;1933684;74;33036;-78
2022/03/30 13:27:42;;;;;;;90.47;82.80;;;;;;;11.21;100.00;100482.19;1928618;73;32973;-78
2022/03/30 13:33:27;;;;;;;91.17;83.57;;;;;;;11.32;100.00;100478.13;1934099;73;33509;-79
2022/03/30 13:39:12;;;;;;;82.90;75.70;;;;;;;11.36;100.00;100462.50;1911594;73;33152;-79
2022/03/30 13:44:57;;;;;;;83.33;75.93;;;;;;;11.40;100.00;100460.20;1940475;73;33141;-76
2022/03/30 13:50:43;;;;;;;85.07;78.13;;;;;;;11.46;100.00;100451.80;1939807;73;32985;-78
2022/03/30 13:56:28;;;;;;;81.13;74.20;;;;;;;11.62;100.00;100455.44;1939669;73;33566;-78
2022/03/30 14:02:17;;;;;;;82.63;75.53;;;;;;;11.52;100.00;100457.53;1916929;73;33167;-77
2022/03/30 14:08:02;;;;;;;77.43;71.13;;;;;;;11.92;100.00;100442.19;1940231;73;33515;-79
2022/03/30 14:13:48;;;;;;;73.73;68.27;;;;;;;12.03;100.00;100441.70;1934683;73;33036;-78
2022/03/30 14:19:33;;;;;;;70.30;63.83;;;;;;;12.95;100.00;100440.21;1929616;73;33505;-75
2022/03/30 14:25:18;;;;;;;69.53;63.60;;;;;;;12.91;100.00;100441.14;1928931;73;33076;-73
2022/03/30 14:31:03;;;;;;;67.87;61.63;;;;;;;13.06;100.00;100439.41;1933671;73;33055;-74
2022/03/30 14:36:49;;;;;;;69.63;63.83;;;;;;;12.39;100.00;100441.06;1938958;73;33117;-75
2022/03/30 14:42:33;;;;;;;72.87;66.50;;;;;;;11.64;100.00;100439.81;1939444;73;33137;-76
2022/03/30 14:48:18;;;;;;;73.40;67.23;;;;;;;11.73;100.00;100438.03;1922576;73;33010;-74
2022/03/30 14:54:04;;;;;;;74.27;68.23;;;;;;;11.61;100.00;100435.69;1939237;73;32979;-75
2022/03/30 14:59:48;;;;;;;75.70;69.43;;;;;;;11.56;100.00;100438.55;1918234;73;32930;-78
2022/03/30 15:05:31;;;;;;;72.33;66.27;;;;;;;11.38;100.00;100429.08;1922802;73;32927;-74
2022/03/30 15:11:16;;;;;;;76.20;69.83;;;;;;;11.47;100.00;100428.42;1934090;73;33029;-73
2022/03/30 15:17:01;;;;;;;74.97;68.73;;;;;;;11.37;100.00;100426.62;1938904;73;33108;-76
2022/03/30 15:22:46;;;;;;;73.83;67.63;;;;;;;11.29;100.00;100428.13;1928365;74;32976;-76
2022/03/30 15:28:31;;;;;;;73.67;67.73;;;;;;;11.27;100.00;100428.14;1911643;73;33078;-76
2022/03/30 15:34:18;;;;;;;73.83;67.53;;;;;;;11.28;100.00;100421.47;1939415;73;33224;-74
2022/03/30 15:40:01;;;;;;;73.00;67.00;;;;;;;11.14;100.00;100417.77;1911594;73;33086;-76
2022/03/30 15:45:45;;;;;;;72.53;66.53;;;;;;;11.09;100.00;100413.66;1939707;73;32996;-75
2022/03/30 15:51:31;;;;;;;74.20;68.00;;;;;;;11.04;100.00;100410.39;1933739;73;33044;-75
2022/03/30 15:57:16;;;;;;;73.37;67.13;;;;;;;11.24;100.00;100402.34;1949963;72;33475;-76
2022/03/30 16:03:00;;;;;;;75.60;68.77;;;;;;;11.03;100.00;100398.20;1938785;74;33060;-74
2022/03/30 16:08:58;;;;;;;78.30;71.57;;;;;;;11.05;100.00;100386.21;1923110;73;33116;-77
2022/03/30 16:14:46;;;;;;;81.97;74.67;;;;;;;11.11;100.00;100385.85;1939834;73;33026;-74
2022/03/30 16:20:33;;;;;;;81.07;73.77;;;;;;;11.22;100.00;100383.73;1922415;74;33062;-77
2022/03/30 16:26:17;;;;;;;78.43;71.27;;;;;;;11.14;100.00;100371.34;1934564;73;33046;-73
2022/03/30 16:32:01;;;;;;;84.67;76.97;;;;;;;11.04;100.00;100373.46;1928813;73;33001;-78
2022/03/30 16:37:46;;;;;;;87.97;80.47;;;;;;;10.92;100.00;100367.77;1939603;73;33607;-76
2022/03/30 16:43:31;;;;;;;86.80;79.67;;;;;;;11.01;100.00;100364.31;1928664;73;33619;-77
2022/03/30 16:49:16;;;;;;;87.63;80.23;;;;;;;11.23;100.00;100357.03;1939185;73;33579;-78
2022/03/30 16:55:07;;;;;;;82.67;75.77;;;;;;;11.22;100.00;100354.55;1937732;73;33193;-73
2022/03/30 17:00:52;;;;;;;81.20;74.30;;;;;;;11.14;100.00;100360.23;1917329;73;33417;-72
2022/03/30 17:06:37;;;;;;;88.03;80.50;;;;;;;11.19;100.00;100360.72;1917268;73;33726;-82
2022/03/30 17:12:25;;;;;;;88.97;81.53;;;;;;;11.08;100.00;100366.17;1930183;73;32923;-82
2022/03/30 17:18:10;;;;;;;82.43;76.20;;;;;;;10.92;100.00;100369.16;1929216;73;32979;-81
2022/03/30 17:23:59;;;;;;;77.87;72.27;;;;;;;10.76;100.00;100371.89;1931607;73;33120;-78
2022/03/30 17:29:44;;;;;;;79.73;74.07;;;;;;;10.67;100.00;100372.84;1923505;73;33394;-77
2022/03/30 17:35:29;;;;;;;83.33;77.27;;;;;;;10.44;100.00;100384.22;1934212;74;32999;-74
2022/03/30 17:41:15;;;;;;;83.43;77.50;;;;;;;10.32;100.00;100387.97;1934176;73;33006;-78
2022/03/30 17:47:11;;;;;;;80.33;74.80;;;;;;;10.32;100.00;100397.13;1939448;73;32996;-78
2022/03/30 17:52:56;;;;;;;82.03;76.37;;;;;;;10.11;100.00;100414.27;1934479;73;33080;-74
2022/03/30 17:58:41;;;;;;;77.83;72.57;;;;;;;9.85;100.00;100421.44;1934384;73;32986;-76
2022/03/30 18:04:28;;;;;;;75.37;70.20;;;;;;;9.78;100.00;100426.50;1934532;73;32917;-75
2022/03/30 18:10:15;;;;;;;68.53;64.23;;;;;;;9.63;100.00;100436.31;1911695;73;32984;-78
2022/03/30 18:16:00;;;;;;;68.70;64.80;;;;;;;9.40;100.00;100443.44;1934048;74;33115;-77
2022/03/30 18:21:53;;;;;;;68.30;64.47;;;;;;;9.36;100.00;100440.13;1921154;73;32979;-82
2022/03/30 18:27:37;;;;;;;65.53;61.57;;;;;;;9.30;100.00;100448.20;1939646;73;33614;-78
2022/03/30 18:33:27;;;;;;;66.03;62.00;;;;;;;9.22;100.00;100460.72;1939443;73;33521;-80
2022/03/30 18:39:19;;;;;;;65.40;61.90;;;;;;;9.12;100.00;100456.05;1922750;73;32993;-80
2022/03/30 18:45:05;;;;;;;64.40;60.70;;;;;;;8.76;100.00;100465.66;1941584;74;33496;-86
2022/03/30 18:50:54;;;;;;;64.50;60.90;;;;;;;8.56;100.00;100462.38;1922734;73;33124;-74
2022/03/30 18:56:43;;;;;;;65.07;61.30;;;;;;;8.43;100.00;100468.50;1898690;74;33091;-87
2022/03/30 19:02:32;;;;;;;65.47;61.57;;;;;;;8.36;100.00;100476.83;1934135;73;32971;-87
2022/03/30 19:08:26;;;;;;;61.27;57.70;;;;;;;8.16;100.00;100483.20;1934736;73;32978;-85
2022/03/30 19:14:18;;;;;;;62.73;59.03;;;;;;;8.18;100.00;100495.64;1929861;73;33092;-85
2022/03/30 19:20:14;;;;;;;63.37;59.57;;;;;;;8.01;100.00;100501.17;1932318;73;33234;-80
2022/03/30 19:26:14;;;;;;;65.60;61.70;;;;;;;8.18;100.00;100508.09;1941029;73;33565;-74
2022/03/30 19:32:06;;;;;;;65.50;61.80;;;;;;;8.18;100.00;100516.38;1928141;73;32972;-80
2022/03/30 19:38:04;;;;;;;62.80;59.43;;;;;;;7.96;100.00;100531.03;1940381;73;33495;-79
2022/03/30 19:40:56;;;;;;;61.63;58.33;;;;;;;7.80;100.00;100537.67;1907173;75;26701;-71
2022/03/30 19:46:55;;;;;;;61.30;57.90;;;;;;;7.76;100.00;100543.47;1939476;73;32959;-71
2022/03/30 19:52:41;;;;;;;65.47;61.87;;;;;;;7.49;100.00;100553.90;1917045;73;32904;-81
2022/03/30 19:58:25;;;;;;;65.20;61.50;;;;;;;7.53;100.00;100562.76;1934249;73;33079;-71
2022/03/30 20:04:10;;;;;;;67.37;63.67;;;;;;;7.47;100.00;100579.06;1940292;73;33089;-78
2022/03/30 20:09:55;;;;;;;68.00;64.20;;;;;;;7.24;100.00;100574.83;1933898;73;33485;-75
2022/03/30 20:15:39;;;;;;;62.87;59.37;;;;;;;7.04;100.00;100588.55;1928512;73;33034;-74
2022/03/30 20:21:24;;;;;;;63.70;60.20;;;;;;;7.13;100.00;100587.48;1939937;73;33511;-78
2022/03/30 20:27:11;;;;;;;61.13;57.63;;;;;;;7.04;100.00;100598.21;1934542;73;33126;-72
2022/03/30 20:32:58;;;;;;;61.03;57.63;;;;;;;6.84;100.00;100599.48;1928662;73;33046;-75
2022/03/30 20:38:45;;;;;;;62.23;58.87;;;;;;;6.66;100.00;100606.27;1923540;73;33473;-69
2022/03/30 20:44:30;;;;;;;62.53;59.23;;;;;;;6.62;100.00;100605.13;1922598;73;33048;-73
2022/03/30 20:50:17;;;;;;;60.33;57.10;;;;;;;6.68;100.00;100605.44;1934216;73;32965;-76
2022/03/30 20:56:01;;;;;;;59.80;56.60;;;;;;;6.71;100.00;100610.45;1925963;73;33060;-76
2022/03/30 21:01:45;;;;;;;53.97;51.17;;;;;;;6.69;100.00;100611.79;1923216;73;32980;-70
2022/03/30 21:07:30;;;;;;;55.00;52.30;;;;;;;6.58;100.00;100615.59;1917299;74;33502;-71
2022/03/30 21:13:14;;;;;;;54.77;51.97;;;;;;;6.49;100.00;100620.77;1939265;74;33199;-76
2022/03/30 21:18:59;;;;;;;52.13;49.53;;;;;;;6.50;100.00;100629.33;1934182;74;33085;-76
2022/03/30 21:24:44;;;;;;;49.37;46.97;;;;;;;6.43;100.00;100635.59;1939812;73;33004;-76
2022/03/30 21:30:29;;;;;;;50.63;48.23;;;;;;;6.42;100.00;100633.92;1933689;73;33002;-72
2022/03/30 21:36:14;;;;;;;50.20;47.80;;;;;;;6.48;100.00;100639.78;1939549;73;33564;-75
2022/03/30 21:41:58;;;;;;;47.40;45.20;;;;;;;6.34;100.00;100633.87;1917651;74;32981;-69
2022/03/30 21:47:44;;;;;;;50.13;47.73;;;;;;;6.42;100.00;100637.26;1939422;73;32989;-71
2022/03/30 21:53:29;;;;;;;48.37;46.07;;;;;;;6.42;100.00;100630.36;1938929;73;33020;-75
2022/03/30 21:59:13;;;;;;;54.00;51.40;;;;;;;6.43;100.00;100632.84;1923075;73;33001;-82
2022/03/30 22:04:57;;;;;;;52.67;50.17;;;;;;;6.22;100.00;100646.16;1939107;73;33209;-74
2022/03/30 22:10:44;;;;;;;54.33;51.80;;;;;;;6.26;100.00;100646.77;1939230;73;32978;-75
2022/03/30 22:16:29;;;;;;;56.80;54.00;;;;;;;6.20;100.00;100639.55;1933799;73;33444;-80
2022/03/30 22:22:14;;;;;;;57.73;54.90;;;;;;;6.12;100.00;100648.84;1928320;74;33548;-76
2022/03/30 22:27:59;;;;;;;61.23;58.13;;;;;;;6.07;100.00;100650.17;1939513;73;33038;-78
2022/03/30 22:39:48;;;;;;;58.03;55.13;;;;;;;6.08;100.00;100655.41;1923071;73;32968;-88
2022/03/30 22:45:32;;;;;;;54.47;51.77;;;;;;;6.05;100.00;100647.66;1911870;73;33409;-79
2022/03/30 22:51:16;;;;;;;54.63;51.93;;;;;;;6.05;100.00;100652.34;1940353;73;33440;-80
2022/03/30 22:57:00;;;;;;;58.00;54.90;;;;;;;5.91;100.00;100658.27;2071247;69;33246;-78
2022/03/30 23:02:45;;;;;;;61.97;58.77;;;;;;;5.80;100.00;100661.14;1923782;74;32906;-80
2022/03/30 23:08:35;;;;;;;60.47;57.27;;;;;;;5.76;100.00;100671.02;1940264;73;33530;-79
2022/03/30 23:14:19;;;;;;;63.37;59.77;;;;;;;5.64;100.00;100673.92;1928677;73;32912;-80
2022/03/30 23:20:07;;;;;;;63.20;59.80;;;;;;;5.72;100.00;100680.35;1940534;73;33452;-75
2022/03/30 23:25:50;;;;;;;63.53;60.13;;;;;;;5.59;100.00;100675.23;1929624;73;33401;-80
2022/03/30 23:31:35;;;;;;;64.70;61.10;;;;;;;5.62;100.00;100668.36;1922967;73;33009;-80
2022/03/30 23:37:21;;;;;;;63.93;60.33;;;;;;;5.51;100.00;100675.69;1934307;73;33174;-75
2022/03/30 23:43:07;;;;;;;64.30;60.70;;;;;;;5.39;100.00;100673.03;1939926;73;33468;-78
2022/03/30 23:48:52;;;;;;;65.33;61.73;;;;;;;5.38;100.00;100676.89;1911907;73;33465;-79
2022/03/30 23:54:36;;;;;;;64.30;60.80;;;;;;;5.42;100.00;100678.05;1918076;73;33192;-77
